sensor_id;sensor_type;location;lat;lon;timestamp;P1;durP1;ratioP1;P2;durP2;ratioP2
21175;SDS011;10746;50.178;8.186;2022-10-22T00:00:32;57.83;;;22.25;;
21175;SDS011;10746;50.178;8.186;2022-10-22T00:02:58;42.42;;;20.83;;
21175;SDS011;10746;50.178;8.186;2022-10-22T00:05:25;53.55;;;22.45;;
21175;SDS011;10746;50.178;8.186;2022-10-22T00:07:52;48.20;;;21.88;;
21175;SDS011;10746;50.178;8.186;2022-10-22T00:10:18;43.40;;;20.30;;
21175;SDS011;10746;50.178;8.186;2022-10-22T00:12:47;45.88;;;19.85;;
21175;SDS011;10746;50.178;8.186;2022-10-22T00:15:13;45.13;;;18.95;;
21175;SDS011;10746;50.178;8.186;2022-10-22T00:17:40;38.83;;;18.58;;
21175;SDS011;10746;50.178;8.186;2022-10-22T00:20:07;39.40;;;17.55;;
21175;SDS011;10746;50.178;8.186;2022-10-22T00:22:34;38.15;;;17.83;;
21175;SDS011;10746;50.178;8.186;2022-10-22T00:25:01;41.25;;;16.98;;
21175;SDS011;10746;50.178;8.186;2022-10-22T00:27:28;32.85;;;16.75;;
21175;SDS011;10746;50.178;8.186;2022-10-22T00:29:56;35.13;;;15.52;;
21175;SDS011;10746;50.178;8.186;2022-10-22T00:32:23;25.02;;;13.77;;
21175;SDS011;10746;50.178;8.186;2022-10-22T00:34:49;26.83;;;13.73;;
21175;SDS011;10746;50.178;8.186;2022-10-22T00:37:16;30.35;;;13.82;;
21175;SDS011;10746;50.178;8.186;2022-10-22T00:39:43;29.38;;;13.50;;
21175;SDS011;10746;50.178;8.186;2022-10-22T00:42:10;28.63;;;12.82;;
21175;SDS011;10746;50.178;8.186;2022-10-22T00:45:00;32.55;;;13.25;;
21175;SDS011;10746;50.178;8.186;2022-10-22T00:47:34;34.40;;;13.93;;
21175;SDS011;10746;50.178;8.186;2022-10-22T00:50:05;30.35;;;14.13;;
21175;SDS011;10746;50.178;8.186;2022-10-22T00:52:36;23.65;;;12.30;;
21175;SDS011;10746;50.178;8.186;2022-10-22T00:55:03;23.15;;;12.13;;
21175;SDS011;10746;50.178;8.186;2022-10-22T00:57:31;25.77;;;11.35;;
21175;SDS011;10746;50.178;8.186;2022-10-22T01:00:02;25.20;;;11.90;;
21175;SDS011;10746;50.178;8.186;2022-10-22T01:02:30;22.88;;;11.68;;
21175;SDS011;10746;50.178;8.186;2022-10-22T01:04:57;24.92;;;12.80;;
21175;SDS011;10746;50.178;8.186;2022-10-22T01:07:24;26.30;;;12.18;;
21175;SDS011;10746;50.178;8.186;2022-10-22T01:09:54;17.60;;;10.10;;
21175;SDS011;10746;50.178;8.186;2022-10-22T01:12:32;20.92;;;10.05;;
21175;SDS011;10746;50.178;8.186;2022-10-22T01:15:12;18.25;;;9.25;;
21175;SDS011;10746;50.178;8.186;2022-10-22T01:17:46;16.92;;;9.18;;
21175;SDS011;10746;50.178;8.186;2022-10-22T01:20:24;29.90;;;10.80;;
21175;SDS011;10746;50.178;8.186;2022-10-22T01:23:23;21.95;;;10.10;;
21175;SDS011;10746;50.178;8.186;2022-10-22T01:26:03;22.77;;;10.40;;
21175;SDS011;10746;50.178;8.186;2022-10-22T01:28:44;18.83;;;9.32;;
21175;SDS011;10746;50.178;8.186;2022-10-22T01:31:19;21.33;;;9.15;;
21175;SDS011;10746;50.178;8.186;2022-10-22T01:33:48;18.17;;;8.73;;
21175;SDS011;10746;50.178;8.186;2022-10-22T01:36:18;16.65;;;8.05;;
21175;SDS011;10746;50.178;8.186;2022-10-22T01:38:46;18.67;;;7.85;;
21175;SDS011;10746;50.178;8.186;2022-10-22T01:41:14;16.45;;;7.85;;
21175;SDS011;10746;50.178;8.186;2022-10-22T01:43:41;12.80;;;7.25;;
21175;SDS011;10746;50.178;8.186;2022-10-22T01:46:09;13.30;;;8.00;;
21175;SDS011;10746;50.178;8.186;2022-10-22T01:48:41;14.00;;;8.30;;
21175;SDS011;10746;50.178;8.186;2022-10-22T01:51:19;17.58;;;9.25;;
21175;SDS011;10746;50.178;8.186;2022-10-22T01:53:55;13.98;;;9.40;;
21175;SDS011;10746;50.178;8.186;2022-10-22T01:56:29;14.77;;;9.05;;
21175;SDS011;10746;50.178;8.186;2022-10-22T01:59:07;16.50;;;9.75;;
21175;SDS011;10746;50.178;8.186;2022-10-22T02:01:44;21.35;;;11.98;;
21175;SDS011;10746;50.178;8.186;2022-10-22T02:04:19;19.25;;;10.45;;
21175;SDS011;10746;50.178;8.186;2022-10-22T02:06:50;14.98;;;8.77;;
21175;SDS011;10746;50.178;8.186;2022-10-22T02:09:20;22.60;;;9.88;;
21175;SDS011;10746;50.178;8.186;2022-10-22T02:11:50;18.48;;;9.27;;
21175;SDS011;10746;50.178;8.186;2022-10-22T02:14:19;16.40;;;9.45;;
21175;SDS011;10746;50.178;8.186;2022-10-22T02:16:48;17.45;;;9.45;;
21175;SDS011;10746;50.178;8.186;2022-10-22T02:19:18;17.98;;;9.27;;
21175;SDS011;10746;50.178;8.186;2022-10-22T02:21:49;13.45;;;7.57;;
21175;SDS011;10746;50.178;8.186;2022-10-22T02:24:17;17.67;;;9.25;;
21175;SDS011;10746;50.178;8.186;2022-10-22T02:26:45;14.98;;;8.18;;
21175;SDS011;10746;50.178;8.186;2022-10-22T02:29:18;10.85;;;7.82;;
21175;SDS011;10746;50.178;8.186;2022-10-22T02:31:51;12.25;;;7.70;;
21175;SDS011;10746;50.178;8.186;2022-10-22T02:34:22;11.27;;;7.45;;
21175;SDS011;10746;50.178;8.186;2022-10-22T02:36:52;11.98;;;7.40;;
21175;SDS011;10746;50.178;8.186;2022-10-22T02:39:21;12.98;;;7.53;;
21175;SDS011;10746;50.178;8.186;2022-10-22T02:41:48;14.80;;;8.18;;
21175;SDS011;10746;50.178;8.186;2022-10-22T02:44:15;13.23;;;7.78;;
21175;SDS011;10746;50.178;8.186;2022-10-22T02:46:45;17.38;;;8.38;;
21175;SDS011;10746;50.178;8.186;2022-10-22T02:49:13;11.52;;;8.02;;
21175;SDS011;10746;50.178;8.186;2022-10-22T02:51:40;15.15;;;7.95;;
21175;SDS011;10746;50.178;8.186;2022-10-22T02:54:07;13.48;;;7.93;;
21175;SDS011;10746;50.178;8.186;2022-10-22T02:56:34;11.63;;;7.20;;
21175;SDS011;10746;50.178;8.186;2022-10-22T02:59:01;12.75;;;7.75;;
21175;SDS011;10746;50.178;8.186;2022-10-22T03:01:27;13.77;;;8.00;;
21175;SDS011;10746;50.178;8.186;2022-10-22T03:03:54;13.93;;;7.60;;
21175;SDS011;10746;50.178;8.186;2022-10-22T03:06:22;9.52;;;6.97;;
21175;SDS011;10746;50.178;8.186;2022-10-22T03:08:49;12.35;;;7.07;;
21175;SDS011;10746;50.178;8.186;2022-10-22T03:11:15;12.48;;;7.22;;
21175;SDS011;10746;50.178;8.186;2022-10-22T03:13:42;11.88;;;6.63;;
21175;SDS011;10746;50.178;8.186;2022-10-22T03:16:09;14.20;;;7.15;;
21175;SDS011;10746;50.178;8.186;2022-10-22T03:18:36;10.38;;;6.68;;
21175;SDS011;10746;50.178;8.186;2022-10-22T03:21:05;11.45;;;6.43;;
21175;SDS011;10746;50.178;8.186;2022-10-22T03:23:36;11.75;;;7.05;;
21175;SDS011;10746;50.178;8.186;2022-10-22T03:26:04;10.38;;;6.30;;
21175;SDS011;10746;50.178;8.186;2022-10-22T03:28:31;10.77;;;6.40;;
21175;SDS011;10746;50.178;8.186;2022-10-22T03:30:59;11.40;;;6.20;;
21175;SDS011;10746;50.178;8.186;2022-10-22T03:33:26;15.27;;;6.68;;
21175;SDS011;10746;50.178;8.186;2022-10-22T03:35:52;11.13;;;6.45;;
21175;SDS011;10746;50.178;8.186;2022-10-22T03:38:19;17.42;;;7.38;;
21175;SDS011;10746;50.178;8.186;2022-10-22T03:40:47;13.10;;;6.22;;
21175;SDS011;10746;50.178;8.186;2022-10-22T03:43:15;14.75;;;6.60;;
21175;SDS011;10746;50.178;8.186;2022-10-22T03:45:41;12.32;;;6.35;;
21175;SDS011;10746;50.178;8.186;2022-10-22T03:48:08;11.85;;;6.40;;
21175;SDS011;10746;50.178;8.186;2022-10-22T03:50:35;14.07;;;6.57;;
21175;SDS011;10746;50.178;8.186;2022-10-22T03:53:02;10.77;;;6.53;;
21175;SDS011;10746;50.178;8.186;2022-10-22T03:55:29;14.40;;;6.57;;
21175;SDS011;10746;50.178;8.186;2022-10-22T03:57:57;10.80;;;6.00;;
21175;SDS011;10746;50.178;8.186;2022-10-22T04:00:24;11.73;;;6.47;;
21175;SDS011;10746;50.178;8.186;2022-10-22T04:02:50;13.70;;;6.75;;
21175;SDS011;10746;50.178;8.186;2022-10-22T04:05:17;14.18;;;6.75;;
21175;SDS011;10746;50.178;8.186;2022-10-22T04:07:44;12.45;;;6.63;;
21175;SDS011;10746;50.178;8.186;2022-10-22T04:10:11;11.90;;;6.22;;
21175;SDS011;10746;50.178;8.186;2022-10-22T04:12:37;11.93;;;6.90;;
21175;SDS011;10746;50.178;8.186;2022-10-22T04:15:06;17.40;;;6.13;;
21175;SDS011;10746;50.178;8.186;2022-10-22T04:17:34;10.48;;;6.13;;
21175;SDS011;10746;50.178;8.186;2022-10-22T04:20:02;8.27;;;5.88;;
21175;SDS011;10746;50.178;8.186;2022-10-22T04:22:31;11.68;;;6.28;;
21175;SDS011;10746;50.178;8.186;2022-10-22T04:24:58;10.80;;;6.32;;
21175;SDS011;10746;50.178;8.186;2022-10-22T04:27:27;14.60;;;6.95;;
21175;SDS011;10746;50.178;8.186;2022-10-22T04:29:55;15.38;;;6.75;;
21175;SDS011;10746;50.178;8.186;2022-10-22T04:32:23;14.27;;;7.30;;
21175;SDS011;10746;50.178;8.186;2022-10-22T04:34:50;16.48;;;6.97;;
21175;SDS011;10746;50.178;8.186;2022-10-22T04:37:16;13.05;;;6.78;;
21175;SDS011;10746;50.178;8.186;2022-10-22T04:39:43;15.82;;;7.55;;
21175;SDS011;10746;50.178;8.186;2022-10-22T04:42:10;11.95;;;6.72;;
21175;SDS011;10746;50.178;8.186;2022-10-22T04:44:37;15.48;;;7.50;;
21175;SDS011;10746;50.178;8.186;2022-10-22T04:47:03;12.27;;;7.63;;
21175;SDS011;10746;50.178;8.186;2022-10-22T04:49:31;11.13;;;7.43;;
21175;SDS011;10746;50.178;8.186;2022-10-22T04:51:58;13.95;;;7.53;;
21175;SDS011;10746;50.178;8.186;2022-10-22T04:54:25;10.52;;;7.40;;
21175;SDS011;10746;50.178;8.186;2022-10-22T04:56:52;15.68;;;7.82;;
21175;SDS011;10746;50.178;8.186;2022-10-22T04:59:18;15.98;;;7.28;;
21175;SDS011;10746;50.178;8.186;2022-10-22T05:01:45;13.25;;;7.25;;
21175;SDS011;10746;50.178;8.186;2022-10-22T05:04:13;12.13;;;8.05;;
21175;SDS011;10746;50.178;8.186;2022-10-22T05:06:43;12.10;;;8.00;;
21175;SDS011;10746;50.178;8.186;2022-10-22T05:09:11;18.17;;;8.48;;
21175;SDS011;10746;50.178;8.186;2022-10-22T05:11:40;15.93;;;7.93;;
21175;SDS011;10746;50.178;8.186;2022-10-22T05:14:09;18.95;;;9.27;;
21175;SDS011;10746;50.178;8.186;2022-10-22T05:16:37;17.52;;;8.77;;
21175;SDS011;10746;50.178;8.186;2022-10-22T05:19:04;15.93;;;8.90;;
21175;SDS011;10746;50.178;8.186;2022-10-22T05:21:32;16.30;;;9.35;;
21175;SDS011;10746;50.178;8.186;2022-10-22T05:24:00;17.40;;;9.20;;
21175;SDS011;10746;50.178;8.186;2022-10-22T05:26:28;16.35;;;8.30;;
21175;SDS011;10746;50.178;8.186;2022-10-22T05:28:55;20.38;;;8.68;;
21175;SDS011;10746;50.178;8.186;2022-10-22T05:31:21;21.17;;;7.97;;
21175;SDS011;10746;50.178;8.186;2022-10-22T05:33:48;16.27;;;8.40;;
21175;SDS011;10746;50.178;8.186;2022-10-22T05:36:17;22.08;;;8.52;;
21175;SDS011;10746;50.178;8.186;2022-10-22T05:38:45;15.25;;;8.00;;
21175;SDS011;10746;50.178;8.186;2022-10-22T05:41:15;16.45;;;8.43;;
21175;SDS011;10746;50.178;8.186;2022-10-22T05:43:43;14.70;;;8.40;;
21175;SDS011;10746;50.178;8.186;2022-10-22T05:46:10;14.15;;;8.50;;
21175;SDS011;10746;50.178;8.186;2022-10-22T05:48:38;15.18;;;7.90;;
21175;SDS011;10746;50.178;8.186;2022-10-22T05:51:06;17.30;;;7.88;;
21175;SDS011;10746;50.178;8.186;2022-10-22T05:53:34;12.48;;;8.07;;
21175;SDS011;10746;50.178;8.186;2022-10-22T05:56:04;21.10;;;8.05;;
21175;SDS011;10746;50.178;8.186;2022-10-22T05:58:34;12.10;;;7.82;;
21175;SDS011;10746;50.178;8.186;2022-10-22T06:01:02;18.95;;;9.70;;
21175;SDS011;10746;50.178;8.186;2022-10-22T06:03:30;17.83;;;9.75;;
21175;SDS011;10746;50.178;8.186;2022-10-22T06:05:58;15.38;;;9.68;;
21175;SDS011;10746;50.178;8.186;2022-10-22T06:08:26;18.27;;;9.80;;
21175;SDS011;10746;50.178;8.186;2022-10-22T06:10:53;19.80;;;10.68;;
21175;SDS011;10746;50.178;8.186;2022-10-22T06:13:20;21.70;;;11.10;;
21175;SDS011;10746;50.178;8.186;2022-10-22T06:15:49;22.67;;;10.77;;
21175;SDS011;10746;50.178;8.186;2022-10-22T06:18:17;22.75;;;11.23;;
21175;SDS011;10746;50.178;8.186;2022-10-22T06:20:44;22.60;;;11.18;;
21175;SDS011;10746;50.178;8.186;2022-10-22T06:23:11;21.58;;;11.35;;
21175;SDS011;10746;50.178;8.186;2022-10-22T06:25:38;23.80;;;11.35;;
21175;SDS011;10746;50.178;8.186;2022-10-22T06:28:05;23.70;;;11.52;;
21175;SDS011;10746;50.178;8.186;2022-10-22T06:30:31;21.17;;;10.82;;
21175;SDS011;10746;50.178;8.186;2022-10-22T06:33:00;16.65;;;10.50;;
21175;SDS011;10746;50.178;8.186;2022-10-22T06:35:26;23.65;;;10.15;;
21175;SDS011;10746;50.178;8.186;2022-10-22T06:37:53;17.92;;;9.60;;
21175;SDS011;10746;50.178;8.186;2022-10-22T06:40:27;13.63;;;9.23;;
21175;SDS011;10746;50.178;8.186;2022-10-22T06:42:53;15.25;;;9.20;;
21175;SDS011;10746;50.178;8.186;2022-10-22T06:45:20;12.48;;;8.10;;
21175;SDS011;10746;50.178;8.186;2022-10-22T06:47:47;11.43;;;7.75;;
21175;SDS011;10746;50.178;8.186;2022-10-22T06:50:14;12.48;;;6.63;;
21175;SDS011;10746;50.178;8.186;2022-10-22T06:52:41;16.38;;;6.63;;
21175;SDS011;10746;50.178;8.186;2022-10-22T06:55:08;11.52;;;6.55;;
21175;SDS011;10746;50.178;8.186;2022-10-22T06:57:36;12.27;;;5.93;;
21175;SDS011;10746;50.178;8.186;2022-10-22T07:00:04;11.73;;;5.32;;
21175;SDS011;10746;50.178;8.186;2022-10-22T07:02:32;7.50;;;4.85;;
21175;SDS011;10746;50.178;8.186;2022-10-22T07:04:59;10.50;;;4.32;;
21175;SDS011;10746;50.178;8.186;2022-10-22T07:07:25;10.80;;;3.45;;
21175;SDS011;10746;50.178;8.186;2022-10-22T07:09:52;7.35;;;3.30;;
21175;SDS011;10746;50.178;8.186;2022-10-22T07:12:19;7.95;;;3.97;;
21175;SDS011;10746;50.178;8.186;2022-10-22T07:14:47;6.38;;;3.47;;
21175;SDS011;10746;50.178;8.186;2022-10-22T07:17:14;6.85;;;3.70;;
21175;SDS011;10746;50.178;8.186;2022-10-22T07:19:41;8.98;;;3.47;;
21175;SDS011;10746;50.178;8.186;2022-10-22T07:22:08;5.57;;;3.38;;
21175;SDS011;10746;50.178;8.186;2022-10-22T07:24:35;9.43;;;3.03;;
21175;SDS011;10746;50.178;8.186;2022-10-22T07:27:01;11.20;;;2.55;;
21175;SDS011;10746;50.178;8.186;2022-10-22T07:29:28;4.75;;;2.63;;
21175;SDS011;10746;50.178;8.186;2022-10-22T07:31:56;4.35;;;2.58;;
21175;SDS011;10746;50.178;8.186;2022-10-22T07:34:23;4.05;;;2.80;;
21175;SDS011;10746;50.178;8.186;2022-10-22T07:36:50;3.80;;;2.47;;
21175;SDS011;10746;50.178;8.186;2022-10-22T07:39:17;5.03;;;2.85;;
21175;SDS011;10746;50.178;8.186;2022-10-22T07:41:43;7.25;;;3.10;;
21175;SDS011;10746;50.178;8.186;2022-10-22T07:44:10;4.97;;;3.20;;
21175;SDS011;10746;50.178;8.186;2022-10-22T07:46:37;5.57;;;3.33;;
21175;SDS011;10746;50.178;8.186;2022-10-22T07:49:05;5.60;;;3.65;;
21175;SDS011;10746;50.178;8.186;2022-10-22T07:51:32;8.20;;;3.20;;
21175;SDS011;10746;50.178;8.186;2022-10-22T07:53:59;7.13;;;3.45;;
21175;SDS011;10746;50.178;8.186;2022-10-22T07:56:26;3.97;;;3.60;;
21175;SDS011;10746;50.178;8.186;2022-10-22T07:58:52;9.30;;;3.50;;
21175;SDS011;10746;50.178;8.186;2022-10-22T08:01:19;8.55;;;3.38;;
21175;SDS011;10746;50.178;8.186;2022-10-22T08:03:46;7.35;;;2.97;;
21175;SDS011;10746;50.178;8.186;2022-10-22T08:06:15;6.45;;;3.60;;
21175;SDS011;10746;50.178;8.186;2022-10-22T08:08:41;6.80;;;2.90;;
21175;SDS011;10746;50.178;8.186;2022-10-22T08:11:09;5.80;;;3.05;;
21175;SDS011;10746;50.178;8.186;2022-10-22T08:13:36;5.07;;;2.58;;
21175;SDS011;10746;50.178;8.186;2022-10-22T08:16:04;10.38;;;2.63;;
21175;SDS011;10746;50.178;8.186;2022-10-22T08:18:31;4.68;;;2.47;;
21175;SDS011;10746;50.178;8.186;2022-10-22T08:20:58;3.80;;;2.47;;
21175;SDS011;10746;50.178;8.186;2022-10-22T08:23:26;4.43;;;2.00;;
21175;SDS011;10746;50.178;8.186;2022-10-22T08:25:53;5.32;;;2.30;;
21175;SDS011;10746;50.178;8.186;2022-10-22T08:28:21;5.18;;;2.40;;
21175;SDS011;10746;50.178;8.186;2022-10-22T08:30:47;6.75;;;2.80;;
21175;SDS011;10746;50.178;8.186;2022-10-22T08:33:14;3.63;;;2.03;;
21175;SDS011;10746;50.178;8.186;2022-10-22T08:35:46;8.20;;;1.92;;
21175;SDS011;10746;50.178;8.186;2022-10-22T08:38:13;4.88;;;1.83;;
21175;SDS011;10746;50.178;8.186;2022-10-22T08:40:41;3.63;;;1.90;;
21175;SDS011;10746;50.178;8.186;2022-10-22T08:43:15;5.28;;;1.80;;
21175;SDS011;10746;50.178;8.186;2022-10-22T08:46:00;5.05;;;1.83;;
21175;SDS011;10746;50.178;8.186;2022-10-22T08:48:40;7.03;;;1.85;;
21175;SDS011;10746;50.178;8.186;2022-10-22T08:51:11;3.88;;;1.75;;
21175;SDS011;10746;50.178;8.186;2022-10-22T08:53:44;6.28;;;1.90;;
21175;SDS011;10746;50.178;8.186;2022-10-22T08:56:29;5.13;;;2.00;;
21175;SDS011;10746;50.178;8.186;2022-10-22T08:58:58;6.30;;;1.80;;
21175;SDS011;10746;50.178;8.186;2022-10-22T09:01:31;5.60;;;1.77;;
21175;SDS011;10746;50.178;8.186;2022-10-22T09:04:01;3.15;;;1.73;;
21175;SDS011;10746;50.178;8.186;2022-10-22T09:06:34;2.83;;;1.60;;
21175;SDS011;10746;50.178;8.186;2022-10-22T09:09:04;13.15;;;1.88;;
21175;SDS011;10746;50.178;8.186;2022-10-22T09:11:39;4.38;;;1.50;;
21175;SDS011;10746;50.178;8.186;2022-10-22T09:14:09;1.52;;;1.35;;
21175;SDS011;10746;50.178;8.186;2022-10-22T09:16:41;4.40;;;1.48;;
21175;SDS011;10746;50.178;8.186;2022-10-22T09:19:19;5.82;;;1.80;;
21175;SDS011;10746;50.178;8.186;2022-10-22T09:21:52;3.05;;;1.27;;
21175;SDS011;10746;50.178;8.186;2022-10-22T09:24:29;3.75;;;1.65;;
21175;SDS011;10746;50.178;8.186;2022-10-22T09:27:08;5.82;;;1.70;;
21175;SDS011;10746;50.178;8.186;2022-10-22T09:29:37;6.32;;;1.73;;
21175;SDS011;10746;50.178;8.186;2022-10-22T09:32:04;7.43;;;1.58;;
21175;SDS011;10746;50.178;8.186;2022-10-22T09:34:32;5.25;;;1.50;;
21175;SDS011;10746;50.178;8.186;2022-10-22T09:36:59;5.63;;;1.42;;
21175;SDS011;10746;50.178;8.186;2022-10-22T09:39:31;4.07;;;1.48;;
21175;SDS011;10746;50.178;8.186;2022-10-22T09:42:00;3.00;;;1.63;;
21175;SDS011;10746;50.178;8.186;2022-10-22T09:44:28;7.78;;;1.80;;
21175;SDS011;10746;50.178;8.186;2022-10-22T09:46:58;5.60;;;1.60;;
21175;SDS011;10746;50.178;8.186;2022-10-22T09:49:26;4.65;;;1.65;;
21175;SDS011;10746;50.178;8.186;2022-10-22T09:51:58;4.22;;;1.45;;
21175;SDS011;10746;50.178;8.186;2022-10-22T09:54:36;7.40;;;1.48;;
21175;SDS011;10746;50.178;8.186;2022-10-22T09:57:05;3.55;;;1.80;;
21175;SDS011;10746;50.178;8.186;2022-10-22T09:59:46;4.90;;;1.70;;
21175;SDS011;10746;50.178;8.186;2022-10-22T10:02:14;13.73;;;1.90;;
21175;SDS011;10746;50.178;8.186;2022-10-22T10:04:45;3.88;;;1.65;;
21175;SDS011;10746;50.178;8.186;2022-10-22T10:07:14;3.97;;;1.50;;
21175;SDS011;10746;50.178;8.186;2022-10-22T10:09:43;6.43;;;1.58;;
21175;SDS011;10746;50.178;8.186;2022-10-22T10:12:13;5.65;;;1.60;;
21175;SDS011;10746;50.178;8.186;2022-10-22T10:14:59;4.25;;;1.73;;
21175;SDS011;10746;50.178;8.186;2022-10-22T10:17:35;1.90;;;1.33;;
21175;SDS011;10746;50.178;8.186;2022-10-22T10:20:12;6.95;;;1.50;;
21175;SDS011;10746;50.178;8.186;2022-10-22T10:22:48;6.85;;;1.63;;
21175;SDS011;10746;50.178;8.186;2022-10-22T10:25:30;3.42;;;1.50;;
21175;SDS011;10746;50.178;8.186;2022-10-22T10:28:09;3.60;;;1.45;;
21175;SDS011;10746;50.178;8.186;2022-10-22T10:30:56;6.53;;;1.52;;
21175;SDS011;10746;50.178;8.186;2022-10-22T10:33:38;8.95;;;1.50;;
21175;SDS011;10746;50.178;8.186;2022-10-22T10:36:15;2.60;;;1.52;;
21175;SDS011;10746;50.178;8.186;2022-10-22T10:38:47;4.05;;;1.30;;
21175;SDS011;10746;50.178;8.186;2022-10-22T10:41:24;3.97;;;1.55;;
21175;SDS011;10746;50.178;8.186;2022-10-22T10:44:12;4.28;;;1.08;;
21175;SDS011;10746;50.178;8.186;2022-10-22T10:46:58;6.43;;;1.55;;
21175;SDS011;10746;50.178;8.186;2022-10-22T10:49:37;5.25;;;1.30;;
21175;SDS011;10746;50.178;8.186;2022-10-22T10:52:05;5.20;;;1.48;;
21175;SDS011;10746;50.178;8.186;2022-10-22T10:54:40;5.78;;;1.30;;
21175;SDS011;10746;50.178;8.186;2022-10-22T10:57:15;3.13;;;1.50;;
21175;SDS011;10746;50.178;8.186;2022-10-22T10:59:55;9.40;;;1.75;;
21175;SDS011;10746;50.178;8.186;2022-10-22T11:05:53;6.22;;;1.55;;
21175;SDS011;10746;50.178;8.186;2022-10-22T11:08:23;8.13;;;1.40;;
21175;SDS011;10746;50.178;8.186;2022-10-22T11:10:54;2.10;;;1.77;;
21175;SDS011;10746;50.178;8.186;2022-10-22T11:13:26;4.90;;;1.42;;
21175;SDS011;10746;50.178;8.186;2022-10-22T11:15:58;4.88;;;1.75;;
21175;SDS011;10746;50.178;8.186;2022-10-22T11:18:31;5.18;;;1.40;;
21175;SDS011;10746;50.178;8.186;2022-10-22T11:21:08;5.63;;;1.42;;
21175;SDS011;10746;50.178;8.186;2022-10-22T11:23:40;2.67;;;1.27;;
21175;SDS011;10746;50.178;8.186;2022-10-22T11:26:10;1.48;;;1.15;;
21175;SDS011;10746;50.178;8.186;2022-10-22T11:28:43;3.95;;;1.58;;
21175;SDS011;10746;50.178;8.186;2022-10-22T11:31:14;2.95;;;1.33;;
21175;SDS011;10746;50.178;8.186;2022-10-22T11:33:45;2.42;;;1.42;;
21175;SDS011;10746;50.178;8.186;2022-10-22T11:36:19;1.73;;;1.00;;
21175;SDS011;10746;50.178;8.186;2022-10-22T11:38:48;6.68;;;1.38;;
21175;SDS011;10746;50.178;8.186;2022-10-22T11:41:17;2.33;;;1.25;;
21175;SDS011;10746;50.178;8.186;2022-10-22T11:43:55;3.22;;;1.48;;
21175;SDS011;10746;50.178;8.186;2022-10-22T11:46:39;1.38;;;1.27;;
21175;SDS011;10746;50.178;8.186;2022-10-22T11:49:16;3.17;;;1.33;;
21175;SDS011;10746;50.178;8.186;2022-10-22T11:51:48;3.65;;;1.30;;
21175;SDS011;10746;50.178;8.186;2022-10-22T11:54:29;2.28;;;1.52;;
21175;SDS011;10746;50.178;8.186;2022-10-22T12:00:05;6.50;;;1.25;;
21175;SDS011;10746;50.178;8.186;2022-10-22T12:02:39;2.80;;;1.13;;
21175;SDS011;10746;50.178;8.186;2022-10-22T12:08:24;6.40;;;1.50;;
21175;SDS011;10746;50.178;8.186;2022-10-22T12:10:55;4.88;;;1.13;;
21175;SDS011;10746;50.178;8.186;2022-10-22T12:13:29;6.45;;;1.42;;
21175;SDS011;10746;50.178;8.186;2022-10-22T12:16:00;2.70;;;1.27;;
21175;SDS011;10746;50.178;8.186;2022-10-22T12:18:32;6.25;;;1.45;;
21175;SDS011;10746;50.178;8.186;2022-10-22T12:21:04;1.80;;;1.20;;
21175;SDS011;10746;50.178;8.186;2022-10-22T12:23:33;5.72;;;1.40;;
21175;SDS011;10746;50.178;8.186;2022-10-22T12:26:01;3.05;;;1.20;;
21175;SDS011;10746;50.178;8.186;2022-10-22T12:28:36;1.30;;;1.20;;
21175;SDS011;10746;50.178;8.186;2022-10-22T12:31:05;5.18;;;1.67;;
21175;SDS011;10746;50.178;8.186;2022-10-22T12:33:40;4.18;;;1.30;;
21175;SDS011;10746;50.178;8.186;2022-10-22T12:36:12;4.03;;;1.35;;
21175;SDS011;10746;50.178;8.186;2022-10-22T12:38:42;6.65;;;1.52;;
21175;SDS011;10746;50.178;8.186;2022-10-22T12:41:12;2.38;;;1.40;;
21175;SDS011;10746;50.178;8.186;2022-10-22T12:43:39;5.93;;;1.52;;
21175;SDS011;10746;50.178;8.186;2022-10-22T12:46:08;6.07;;;1.50;;
21175;SDS011;10746;50.178;8.186;2022-10-22T12:48:38;11.77;;;1.40;;
21175;SDS011;10746;50.178;8.186;2022-10-22T12:51:07;4.03;;;1.52;;
21175;SDS011;10746;50.178;8.186;2022-10-22T12:53:37;6.25;;;1.58;;
21175;SDS011;10746;50.178;8.186;2022-10-22T12:56:11;6.40;;;1.45;;
21175;SDS011;10746;50.178;8.186;2022-10-22T12:58:41;6.63;;;1.55;;
21175;SDS011;10746;50.178;8.186;2022-10-22T13:01:10;2.70;;;1.50;;
21175;SDS011;10746;50.178;8.186;2022-10-22T13:03:39;6.10;;;1.23;;
21175;SDS011;10746;50.178;8.186;2022-10-22T13:06:10;3.40;;;1.15;;
21175;SDS011;10746;50.178;8.186;2022-10-22T13:08:38;2.75;;;1.10;;
21175;SDS011;10746;50.178;8.186;2022-10-22T13:11:06;6.47;;;1.55;;
21175;SDS011;10746;50.178;8.186;2022-10-22T13:13:42;8.02;;;1.40;;
21175;SDS011;10746;50.178;8.186;2022-10-22T13:16:13;11.73;;;1.50;;
21175;SDS011;10746;50.178;8.186;2022-10-22T13:18:41;5.95;;;1.15;;
21175;SDS011;10746;50.178;8.186;2022-10-22T13:21:19;2.72;;;1.00;;
21175;SDS011;10746;50.178;8.186;2022-10-22T13:23:50;6.63;;;1.50;;
21175;SDS011;10746;50.178;8.186;2022-10-22T13:26:19;4.70;;;1.48;;
21175;SDS011;10746;50.178;8.186;2022-10-22T13:28:50;4.50;;;1.30;;
21175;SDS011;10746;50.178;8.186;2022-10-22T13:31:19;9.25;;;1.45;;
21175;SDS011;10746;50.178;8.186;2022-10-22T13:33:50;3.47;;;1.05;;
21175;SDS011;10746;50.178;8.186;2022-10-22T13:36:19;6.18;;;1.40;;
21175;SDS011;10746;50.178;8.186;2022-10-22T13:38:47;1.55;;;1.17;;
21175;SDS011;10746;50.178;8.186;2022-10-22T13:41:18;4.57;;;1.42;;
21175;SDS011;10746;50.178;8.186;2022-10-22T13:43:46;2.92;;;1.52;;
21175;SDS011;10746;50.178;8.186;2022-10-22T13:46:14;5.70;;;1.70;;
21175;SDS011;10746;50.178;8.186;2022-10-22T13:48:41;6.22;;;1.50;;
21175;SDS011;10746;50.178;8.186;2022-10-22T13:51:12;8.10;;;1.40;;
21175;SDS011;10746;50.178;8.186;2022-10-22T13:53:40;4.78;;;1.15;;
21175;SDS011;10746;50.178;8.186;2022-10-22T13:56:10;5.97;;;1.30;;
21175;SDS011;10746;50.178;8.186;2022-10-22T13:58:39;9.77;;;1.85;;
21175;SDS011;10746;50.178;8.186;2022-10-22T14:01:07;7.03;;;1.52;;
21175;SDS011;10746;50.178;8.186;2022-10-22T14:03:45;5.35;;;1.30;;
21175;SDS011;10746;50.178;8.186;2022-10-22T14:06:13;5.43;;;1.35;;
21175;SDS011;10746;50.178;8.186;2022-10-22T14:08:41;4.25;;;1.27;;
21175;SDS011;10746;50.178;8.186;2022-10-22T14:11:10;2.30;;;1.00;;
21175;SDS011;10746;50.178;8.186;2022-10-22T14:13:37;3.58;;;1.05;;
21175;SDS011;10746;50.178;8.186;2022-10-22T14:16:04;3.25;;;1.25;;
21175;SDS011;10746;50.178;8.186;2022-10-22T14:18:33;10.43;;;1.55;;
21175;SDS011;10746;50.178;8.186;2022-10-22T14:21:01;3.22;;;1.17;;
21175;SDS011;10746;50.178;8.186;2022-10-22T14:23:31;4.85;;;1.40;;
21175;SDS011;10746;50.178;8.186;2022-10-22T14:26:00;7.25;;;1.35;;
21175;SDS011;10746;50.178;8.186;2022-10-22T14:28:27;3.95;;;1.17;;
21175;SDS011;10746;50.178;8.186;2022-10-22T14:30:54;4.93;;;1.15;;
21175;SDS011;10746;50.178;8.186;2022-10-22T14:33:22;2.67;;;1.17;;
21175;SDS011;10746;50.178;8.186;2022-10-22T14:35:52;5.10;;;1.30;;
21175;SDS011;10746;50.178;8.186;2022-10-22T14:38:19;1.80;;;1.30;;
21175;SDS011;10746;50.178;8.186;2022-10-22T14:40:46;6.70;;;1.20;;
21175;SDS011;10746;50.178;8.186;2022-10-22T14:43:15;4.80;;;1.35;;
21175;SDS011;10746;50.178;8.186;2022-10-22T14:45:45;4.18;;;1.65;;
21175;SDS011;10746;50.178;8.186;2022-10-22T14:48:12;5.47;;;1.50;;
21175;SDS011;10746;50.178;8.186;2022-10-22T14:50:40;4.22;;;1.15;;
21175;SDS011;10746;50.178;8.186;2022-10-22T14:53:08;4.97;;;1.50;;
21175;SDS011;10746;50.178;8.186;2022-10-22T14:55:36;7.22;;;1.50;;
21175;SDS011;10746;50.178;8.186;2022-10-22T14:58:03;9.70;;;1.65;;
21175;SDS011;10746;50.178;8.186;2022-10-22T15:00:30;5.68;;;1.30;;
21175;SDS011;10746;50.178;8.186;2022-10-22T15:02:58;4.47;;;1.23;;
21175;SDS011;10746;50.178;8.186;2022-10-22T15:05:25;3.65;;;1.20;;